sensor_id;sensor_type;location;lat;lon;timestamp;pressure;altitude;pressure_sealevel;temperature;humidity
74921;BME280;63483;47.384;8.860;2023-06-22T00:01:48;94551.56;;;20.07;43.55
74921;BME280;63483;47.384;8.860;2023-06-22T00:04:14;94544.31;;;20.03;43.67
74921;BME280;63483;47.384;8.860;2023-06-22T00:06:39;94542.47;;;20.03;43.90
74921;BME280;63483;47.384;8.860;2023-06-22T00:09:04;94544.81;;;19.99;43.73
74921;BME280;63483;47.384;8.860;2023-06-22T00:11:32;94549.47;;;19.92;44.02
74921;BME280;63483;47.384;8.860;2023-06-22T00:13:58;94546.00;;;19.92;44.08
74921;BME280;63483;47.384;8.860;2023-06-22T00:16:24;94553.88;;;19.87;43.62
74921;BME280;63483;47.384;8.860;2023-06-22T00:18:49;94551.97;;;19.82;44.00
74921;BME280;63483;47.384;8.860;2023-06-22T00:21:14;94548.25;;;19.83;43.95
74921;BME280;63483;47.384;8.860;2023-06-22T00:23:40;94547.44;;;19.82;43.32
74921;BME280;63483;47.384;8.860;2023-06-22T00:26:06;94557.19;;;19.77;43.74
74921;BME280;63483;47.384;8.860;2023-06-22T00:28:32;94553.41;;;19.73;43.66
74921;BME280;63483;47.384;8.860;2023-06-22T00:30:57;94557.94;;;19.72;43.85
74921;BME280;63483;47.384;8.860;2023-06-22T00:33:22;94554.69;;;19.70;43.86
74921;BME280;63483;47.384;8.860;2023-06-22T00:35:48;94546.16;;;19.68;43.93
74921;BME280;63483;47.384;8.860;2023-06-22T00:38:13;94546.59;;;19.65;43.82
74921;BME280;63483;47.384;8.860;2023-06-22T00:40:38;94545.47;;;19.61;43.48
74921;BME280;63483;47.384;8.860;2023-06-22T00:43:05;94548.38;;;19.59;43.35
74921;BME280;63483;47.384;8.860;2023-06-22T00:45:30;94549.09;;;19.55;43.33
74921;BME280;63483;47.384;8.860;2023-06-22T00:47:57;94542.41;;;19.52;43.67
74921;BME280;63483;47.384;8.860;2023-06-22T00:50:25;94539.19;;;19.50;43.58
74921;BME280;63483;47.384;8.860;2023-06-22T00:52:55;94546.81;;;19.46;43.74
74921;BME280;63483;47.384;8.860;2023-06-22T00:55:22;94547.84;;;19.45;43.83
74921;BME280;63483;47.384;8.860;2023-06-22T00:57:48;94555.25;;;19.43;43.72
74921;BME280;63483;47.384;8.860;2023-06-22T01:00:17;94561.03;;;19.40;43.72
74921;BME280;63483;47.384;8.860;2023-06-22T01:02:46;94561.50;;;19.37;43.63
74921;BME280;63483;47.384;8.860;2023-06-22T01:05:16;94568.94;;;19.35;43.57
74921;BME280;63483;47.384;8.860;2023-06-22T01:13:21;94565.97;;;19.20;43.53
74921;BME280;63483;47.384;8.860;2023-06-22T01:15:55;94557.44;;;19.18;43.88
74921;BME280;63483;47.384;8.860;2023-06-22T01:18:22;94557.91;;;19.15;43.56
74921;BME280;63483;47.384;8.860;2023-06-22T01:20:52;94570.59;;;19.12;43.61
74921;BME280;63483;47.384;8.860;2023-06-22T01:23:42;94567.94;;;19.12;43.76
74921;BME280;63483;47.384;8.860;2023-06-22T01:26:39;94563.22;;;19.15;43.96
74921;BME280;63483;47.384;8.860;2023-06-22T01:29:08;94585.72;;;19.12;43.73
74921;BME280;63483;47.384;8.860;2023-06-22T01:31:39;94581.69;;;19.09;43.75
74921;BME280;63483;47.384;8.860;2023-06-22T01:34:06;94582.97;;;19.07;43.84
74921;BME280;63483;47.384;8.860;2023-06-22T01:36:33;94589.09;;;19.07;43.90
74921;BME280;63483;47.384;8.860;2023-06-22T01:39:00;94578.13;;;19.04;43.82
74921;BME280;63483;47.384;8.860;2023-06-22T01:41:28;94584.72;;;19.01;43.60
74921;BME280;63483;47.384;8.860;2023-06-22T01:43:55;94573.72;;;18.98;43.64
74921;BME280;63483;47.384;8.860;2023-06-22T01:46:22;94564.38;;;18.95;43.67
74921;BME280;63483;47.384;8.860;2023-06-22T01:48:48;94570.50;;;18.95;43.69
74921;BME280;63483;47.384;8.860;2023-06-22T01:51:14;94570.97;;;18.92;43.82
74921;BME280;63483;47.384;8.860;2023-06-22T01:53:40;94590.59;;;18.91;44.05
74921;BME280;63483;47.384;8.860;2023-06-22T01:56:06;94583.66;;;18.90;43.60
74921;BME280;63483;47.384;8.860;2023-06-22T01:58:32;94580.78;;;18.92;43.78
74921;BME280;63483;47.384;8.860;2023-06-22T02:01:13;94594.63;;;18.94;43.85
74921;BME280;63483;47.384;8.860;2023-06-22T02:03:48;94591.38;;;18.92;43.80
74921;BME280;63483;47.384;8.860;2023-06-22T02:06:24;94592.09;;;18.87;43.75
74921;BME280;63483;47.384;8.860;2023-06-22T02:08:54;94600.75;;;18.83;43.76
74921;BME280;63483;47.384;8.860;2023-06-22T02:11:22;94609.19;;;18.80;43.76
74921;BME280;63483;47.384;8.860;2023-06-22T02:13:49;94598.44;;;18.74;44.00
74921;BME280;63483;47.384;8.860;2023-06-22T02:16:15;94591.41;;;18.68;44.25
74921;BME280;63483;47.384;8.860;2023-06-22T02:18:48;94601.34;;;18.61;44.13
74921;BME280;63483;47.384;8.860;2023-06-22T02:21:18;94595.69;;;18.57;43.95
74921;BME280;63483;47.384;8.860;2023-06-22T02:23:43;94599.38;;;18.56;44.26
74921;BME280;63483;47.384;8.860;2023-06-22T02:26:09;94587.97;;;18.56;44.15
74921;BME280;63483;47.384;8.860;2023-06-22T02:28:34;94598.13;;;18.59;44.19
74921;BME280;63483;47.384;8.860;2023-06-22T02:31:00;94602.97;;;18.62;44.05
74921;BME280;63483;47.384;8.860;2023-06-22T02:33:25;94595.22;;;18.60;43.96
74921;BME280;63483;47.384;8.860;2023-06-22T02:35:50;94594.44;;;18.60;43.99
74921;BME280;63483;47.384;8.860;2023-06-22T02:38:16;94596.03;;;18.61;44.07
74921;BME280;63483;47.384;8.860;2023-06-22T02:40:42;94584.75;;;18.54;43.77
74921;BME280;63483;47.384;8.860;2023-06-22T02:43:08;94589.38;;;18.47;43.87
74921;BME280;63483;47.384;8.860;2023-06-22T02:45:33;94591.44;;;18.45;44.09
74921;BME280;63483;47.384;8.860;2023-06-22T02:47:58;94602.50;;;18.41;43.93
74921;BME280;63483;47.384;8.860;2023-06-22T02:50:24;94574.25;;;18.35;44.19
74921;BME280;63483;47.384;8.860;2023-06-22T02:52:49;94571.78;;;17.98;45.45
74921;BME280;63483;47.384;8.860;2023-06-22T02:55:15;94584.72;;;18.06;45.01
74921;BME280;63483;47.384;8.860;2023-06-22T02:57:40;94565.56;;;18.04;44.72
74921;BME280;63483;47.384;8.860;2023-06-22T03:00:09;94568.56;;;18.08;45.37
74921;BME280;63483;47.384;8.860;2023-06-22T03:02:46;94589.53;;;18.10;44.97
74921;BME280;63483;47.384;8.860;2023-06-22T03:05:14;94564.41;;;18.00;45.42
74921;BME280;63483;47.384;8.860;2023-06-22T03:07:41;94562.69;;;18.06;45.33
74921;BME280;63483;47.384;8.860;2023-06-22T03:10:08;94574.56;;;18.03;44.80
74921;BME280;63483;47.384;8.860;2023-06-22T03:12:34;94568.66;;;18.01;44.83
74921;BME280;63483;47.384;8.860;2023-06-22T03:14:59;94581.13;;;18.01;44.97
74921;BME280;63483;47.384;8.860;2023-06-22T03:17:25;94567.28;;;17.99;44.88
74921;BME280;63483;47.384;8.860;2023-06-22T03:19:50;94573.97;;;18.01;45.01
74921;BME280;63483;47.384;8.860;2023-06-22T03:22:15;94571.53;;;18.00;45.33
74921;BME280;63483;47.384;8.860;2023-06-22T03:24:41;94562.66;;;17.94;45.35
74921;BME280;63483;47.384;8.860;2023-06-22T03:27:06;94577.66;;;18.00;45.08
74921;BME280;63483;47.384;8.860;2023-06-22T03:29:32;94572.13;;;18.02;45.32
74921;BME280;63483;47.384;8.860;2023-06-22T03:31:57;94581.91;;;18.01;45.40
74921;BME280;63483;47.384;8.860;2023-06-22T03:34:22;94569.69;;;18.00;45.28
74921;BME280;63483;47.384;8.860;2023-06-22T03:36:48;94567.66;;;18.02;45.27
74921;BME280;63483;47.384;8.860;2023-06-22T03:39:13;94567.03;;;18.00;45.26
74921;BME280;63483;47.384;8.860;2023-06-22T03:41:38;94569.69;;;18.00;45.06
74921;BME280;63483;47.384;8.860;2023-06-22T03:44:04;94559.56;;;17.97;45.12
74921;BME280;63483;47.384;8.860;2023-06-22T03:46:29;94569.91;;;17.87;45.42
74921;BME280;63483;47.384;8.860;2023-06-22T03:48:55;94582.00;;;17.83;45.13
74921;BME280;63483;47.384;8.860;2023-06-22T03:51:20;94566.34;;;17.81;45.37
74921;BME280;63483;47.384;8.860;2023-06-22T03:53:45;94567.16;;;17.82;45.47
74921;BME280;63483;47.384;8.860;2023-06-22T03:56:11;94565.06;;;17.84;45.40
74921;BME280;63483;47.384;8.860;2023-06-22T03:58:36;94557.13;;;17.84;45.50
74921;BME280;63483;47.384;8.860;2023-06-22T04:01:07;94549.53;;;17.87;45.43
74921;BME280;63483;47.384;8.860;2023-06-22T04:03:36;94545.84;;;17.88;45.27
74921;BME280;63483;47.384;8.860;2023-06-22T04:06:02;94548.72;;;17.87;44.65
74921;BME280;63483;47.384;8.860;2023-06-22T04:08:27;94551.59;;;17.85;44.97
74921;BME280;63483;47.384;8.860;2023-06-22T04:10:53;94543.31;;;17.82;45.35
74921;BME280;63483;47.384;8.860;2023-06-22T04:13:18;94542.06;;;17.84;45.60
74921;BME280;63483;47.384;8.860;2023-06-22T04:15:44;94540.19;;;17.85;45.39
74921;BME280;63483;47.384;8.860;2023-06-22T04:18:09;94533.28;;;17.84;45.81
74921;BME280;63483;47.384;8.860;2023-06-22T04:20:34;94536.53;;;17.86;45.90
74921;BME280;63483;47.384;8.860;2023-06-22T04:23:00;94527.53;;;17.87;45.45
74921;BME280;63483;47.384;8.860;2023-06-22T04:25:25;94527.06;;;17.90;45.56
74921;BME280;63483;47.384;8.860;2023-06-22T04:27:50;94532.34;;;17.90;45.42
74921;BME280;63483;47.384;8.860;2023-06-22T04:30:16;94526.72;;;17.86;45.65
74921;BME280;63483;47.384;8.860;2023-06-22T04:32:42;94529.13;;;17.88;45.99
74921;BME280;63483;47.384;8.860;2023-06-22T04:35:08;94528.34;;;17.87;45.53
74921;BME280;63483;47.384;8.860;2023-06-22T04:37:34;94536.84;;;17.89;45.85
74921;BME280;63483;47.384;8.860;2023-06-22T04:39:59;94531.78;;;17.88;46.06
74921;BME280;63483;47.384;8.860;2023-06-22T04:42:26;94536.63;;;17.91;45.94
74921;BME280;63483;47.384;8.860;2023-06-22T04:44:52;94535.47;;;17.87;45.87
74921;BME280;63483;47.384;8.860;2023-06-22T04:47:17;94532.59;;;17.88;46.06
74921;BME280;63483;47.384;8.860;2023-06-22T04:49:42;94524.41;;;17.90;46.09
74921;BME280;63483;47.384;8.860;2023-06-22T04:52:09;94532.34;;;17.90;46.24
74921;BME280;63483;47.384;8.860;2023-06-22T04:54:36;94528.22;;;17.94;46.29
74921;BME280;63483;47.384;8.860;2023-06-22T04:57:03;94536.75;;;17.96;46.48
74921;BME280;63483;47.384;8.860;2023-06-22T04:59:30;94518.78;;;17.98;46.22
74921;BME280;63483;47.384;8.860;2023-06-22T05:02:01;94522.00;;;18.00;46.35
74921;BME280;63483;47.384;8.860;2023-06-22T05:04:28;94525.72;;;17.99;46.30
74921;BME280;63483;47.384;8.860;2023-06-22T05:06:56;94515.69;;;18.01;46.57
74921;BME280;63483;47.384;8.860;2023-06-22T05:09:22;94513.38;;;18.05;46.44
74921;BME280;63483;47.384;8.860;2023-06-22T05:11:47;94517.41;;;18.07;46.40
74921;BME280;63483;47.384;8.860;2023-06-22T05:14:13;94516.28;;;18.03;46.41
74921;BME280;63483;47.384;8.860;2023-06-22T05:16:40;94516.03;;;18.05;46.41
74921;BME280;63483;47.384;8.860;2023-06-22T05:19:05;94511.31;;;18.07;46.20
74921;BME280;63483;47.384;8.860;2023-06-22T05:21:31;94512.09;;;18.07;46.37
74921;BME280;63483;47.384;8.860;2023-06-22T05:23:57;94500.38;;;18.03;46.58
74921;BME280;63483;47.384;8.860;2023-06-22T05:26:28;94509.91;;;18.04;46.29
74921;BME280;63483;47.384;8.860;2023-06-22T05:28:55;94501.16;;;17.80;46.81
74921;BME280;63483;47.384;8.860;2023-06-22T05:31:20;94502.31;;;17.96;46.74
74921;BME280;63483;47.384;8.860;2023-06-22T05:33:46;94504.28;;;18.01;46.70
74921;BME280;63483;47.384;8.860;2023-06-22T05:36:12;94506.81;;;18.07;46.81
74921;BME280;63483;47.384;8.860;2023-06-22T05:38:38;94512.22;;;18.13;46.33
74921;BME280;63483;47.384;8.860;2023-06-22T05:41:04;94509.13;;;18.16;46.54
74921;BME280;63483;47.384;8.860;2023-06-22T05:43:29;94507.03;;;18.18;46.65
74921;BME280;63483;47.384;8.860;2023-06-22T05:45:55;94506.56;;;18.21;46.79
74921;BME280;63483;47.384;8.860;2023-06-22T05:48:20;94501.84;;;18.23;47.18
74921;BME280;63483;47.384;8.860;2023-06-22T05:50:46;94503.91;;;18.21;47.19
74921;BME280;63483;47.384;8.860;2023-06-22T05:53:11;94505.06;;;18.25;47.43
74921;BME280;63483;47.384;8.860;2023-06-22T05:55:37;94501.41;;;18.26;47.20
74921;BME280;63483;47.384;8.860;2023-06-22T05:58:02;94504.75;;;18.33;47.42
74921;BME280;63483;47.384;8.860;2023-06-22T06:00:30;94502.22;;;18.38;47.72
74921;BME280;63483;47.384;8.860;2023-06-22T06:02:56;94504.16;;;18.43;47.64
74921;BME280;63483;47.384;8.860;2023-06-22T06:05:21;94505.88;;;18.37;47.75
74921;BME280;63483;47.384;8.860;2023-06-22T06:07:48;94509.13;;;18.39;47.55
74921;BME280;63483;47.384;8.860;2023-06-22T06:10:13;94503.94;;;18.45;47.70
74921;BME280;63483;47.384;8.860;2023-06-22T06:12:39;94513.72;;;18.44;48.15
74921;BME280;63483;47.384;8.860;2023-06-22T06:15:05;94519.13;;;18.49;47.61
74921;BME280;63483;47.384;8.860;2023-06-22T06:17:30;94513.72;;;18.56;47.42
74921;BME280;63483;47.384;8.860;2023-06-22T06:19:56;94507.94;;;18.59;47.53
74921;BME280;63483;47.384;8.860;2023-06-22T06:22:21;94509.09;;;18.63;47.89
74921;BME280;63483;47.384;8.860;2023-06-22T06:24:48;94517.25;;;18.73;47.66
74921;BME280;63483;47.384;8.860;2023-06-22T06:27:14;94515.13;;;18.87;47.34
74921;BME280;63483;47.384;8.860;2023-06-22T06:29:39;94512.94;;;18.96;47.33
74921;BME280;63483;47.384;8.860;2023-06-22T06:32:05;94515.25;;;19.04;47.58
74921;BME280;63483;47.384;8.860;2023-06-22T06:34:31;94512.56;;;19.16;47.32
74921;BME280;63483;47.384;8.860;2023-06-22T06:36:56;94509.38;;;19.31;47.03
74921;BME280;63483;47.384;8.860;2023-06-22T06:39:21;94514.84;;;19.41;47.13
74921;BME280;63483;47.384;8.860;2023-06-22T06:41:47;94516.63;;;19.53;46.71
74921;BME280;63483;47.384;8.860;2023-06-22T06:44:12;94519.22;;;19.64;47.08
74921;BME280;63483;47.384;8.860;2023-06-22T06:46:38;94523.94;;;19.74;47.31
74921;BME280;63483;47.384;8.860;2023-06-22T06:49:03;94525.38;;;19.82;47.18
74921;BME280;63483;47.384;8.860;2023-06-22T06:51:28;94525.72;;;19.86;47.22
74921;BME280;63483;47.384;8.860;2023-06-22T06:53:54;94528.69;;;19.89;47.36
74921;BME280;63483;47.384;8.860;2023-06-22T06:56:20;94536.53;;;19.96;47.54
74921;BME280;63483;47.384;8.860;2023-06-22T06:58:45;94537.13;;;20.03;47.66
74921;BME280;63483;47.384;8.860;2023-06-22T07:01:12;94534.41;;;20.15;47.01
74921;BME280;63483;47.384;8.860;2023-06-22T07:03:37;94531.66;;;20.27;47.46
74921;BME280;63483;47.384;8.860;2023-06-22T07:06:03;94539.81;;;20.37;47.32
74921;BME280;63483;47.384;8.860;2023-06-22T07:08:28;94527.22;;;20.49;47.27
74921;BME280;63483;47.384;8.860;2023-06-22T07:10:54;94531.63;;;20.61;47.27
74921;BME280;63483;47.384;8.860;2023-06-22T07:13:19;94529.09;;;20.71;46.86
74921;BME280;63483;47.384;8.860;2023-06-22T07:15:45;94539.84;;;20.81;46.81
74921;BME280;63483;47.384;8.860;2023-06-22T07:18:10;94538.38;;;20.91;46.74
74921;BME280;63483;47.384;8.860;2023-06-22T07:20:36;94549.53;;;21.10;46.95
74921;BME280;63483;47.384;8.860;2023-06-22T07:23:01;94549.16;;;21.23;45.44
74921;BME280;63483;47.384;8.860;2023-06-22T07:25:26;94550.66;;;21.14;46.20
74921;BME280;63483;47.384;8.860;2023-06-22T07:28:03;94543.69;;;21.35;45.35
74921;BME280;63483;47.384;8.860;2023-06-22T07:30:30;94550.38;;;21.37;45.69
74921;BME280;63483;47.384;8.860;2023-06-22T07:32:56;94552.34;;;21.47;45.77
74921;BME280;63483;47.384;8.860;2023-06-22T07:35:22;94551.09;;;21.55;45.37
74921;BME280;63483;47.384;8.860;2023-06-22T07:37:47;94580.28;;;21.67;45.07
74921;BME280;63483;47.384;8.860;2023-06-22T07:40:12;94604.03;;;21.68;45.50
74921;BME280;63483;47.384;8.860;2023-06-22T07:42:40;94624.84;;;21.71;44.86
74921;BME280;63483;47.384;8.860;2023-06-22T07:45:06;94665.59;;;21.50;45.99
74921;BME280;63483;47.384;8.860;2023-06-22T07:47:33;94664.63;;;21.56;46.23
74921;BME280;63483;47.384;8.860;2023-06-22T07:50:01;94639.53;;;21.30;46.65
74921;BME280;63483;47.384;8.860;2023-06-22T07:52:27;94699.00;;;21.35;46.88
74921;BME280;63483;47.384;8.860;2023-06-22T07:54:53;94752.09;;;21.03;47.71
74921;BME280;63483;47.384;8.860;2023-06-22T07:57:19;94720.94;;;20.86;47.92
74921;BME280;63483;47.384;8.860;2023-06-22T07:59:44;94740.75;;;20.96;47.74
74921;BME280;63483;47.384;8.860;2023-06-22T08:02:11;94715.94;;;21.07;47.00
74921;BME280;63483;47.384;8.860;2023-06-22T08:04:36;94725.13;;;21.16;46.71
74921;BME280;63483;47.384;8.860;2023-06-22T08:07:02;94732.91;;;21.23;46.64
74921;BME280;63483;47.384;8.860;2023-06-22T08:09:29;94736.09;;;21.03;46.99
74921;BME280;63483;47.384;8.860;2023-06-22T08:11:55;94716.25;;;20.94;47.47
74921;BME280;63483;47.384;8.860;2023-06-22T08:14:22;94721.66;;;21.16;46.72
74921;BME280;63483;47.384;8.860;2023-06-22T08:16:47;94732.63;;;21.19;46.35
74921;BME280;63483;47.384;8.860;2023-06-22T08:19:12;94723.97;;;21.29;46.80
74921;BME280;63483;47.384;8.860;2023-06-22T08:21:38;94718.78;;;21.39;46.43
74921;BME280;63483;47.384;8.860;2023-06-22T08:24:04;94719.22;;;21.53;45.80
74921;BME280;63483;47.384;8.860;2023-06-22T08:26:29;94695.72;;;21.50;46.81
74921;BME280;63483;47.384;8.860;2023-06-22T08:28:54;94705.53;;;21.67;46.69
74921;BME280;63483;47.384;8.860;2023-06-22T08:31:20;94707.41;;;21.88;46.20
74921;BME280;63483;47.384;8.860;2023-06-22T08:33:45;94721.44;;;22.06;46.14
74921;BME280;63483;47.384;8.860;2023-06-22T08:36:11;94714.41;;;22.22;46.41
74921;BME280;63483;47.384;8.860;2023-06-22T08:38:38;94708.75;;;22.40;45.14
74921;BME280;63483;47.384;8.860;2023-06-22T08:41:04;94706.72;;;22.58;44.88
74921;BME280;63483;47.384;8.860;2023-06-22T08:43:29;94703.84;;;22.59;44.02
74921;BME280;63483;47.384;8.860;2023-06-22T08:45:54;94694.81;;;22.71;44.38
74921;BME280;63483;47.384;8.860;2023-06-22T08:48:20;94669.84;;;22.82;43.85
74921;BME280;63483;47.384;8.860;2023-06-22T08:50:45;94661.94;;;22.98;42.80
74921;BME280;63483;47.384;8.860;2023-06-22T08:53:10;94654.50;;;23.05;43.15
74921;BME280;63483;47.384;8.860;2023-06-22T08:55:36;94668.94;;;23.09;43.76
74921;BME280;63483;47.384;8.860;2023-06-22T08:58:01;94656.13;;;23.11;43.13
74921;BME280;63483;47.384;8.860;2023-06-22T09:00:27;94650.84;;;23.21;42.51
74921;BME280;63483;47.384;8.860;2023-06-22T09:02:54;94642.34;;;23.29;41.68
74921;BME280;63483;47.384;8.860;2023-06-22T09:05:24;94647.72;;;23.40;40.88
74921;BME280;63483;47.384;8.860;2023-06-22T09:07:50;94644.03;;;23.46;40.99
74921;BME280;63483;47.384;8.860;2023-06-22T09:10:15;94630.41;;;23.53;39.98
74921;BME280;63483;47.384;8.860;2023-06-22T09:12:44;94640.38;;;23.68;40.37
74921;BME280;63483;47.384;8.860;2023-06-22T09:15:09;94651.59;;;23.70;39.43
74921;BME280;63483;47.384;8.860;2023-06-22T09:17:35;94629.69;;;23.68;39.96
74921;BME280;63483;47.384;8.860;2023-06-22T09:20:01;94624.31;;;23.68;39.22
74921;BME280;63483;47.384;8.860;2023-06-22T09:22:28;94625.94;;;23.74;39.40
74921;BME280;63483;47.384;8.860;2023-06-22T09:24:55;94632.09;;;23.74;39.69
74921;BME280;63483;47.384;8.860;2023-06-22T09:27:21;94631.31;;;23.84;38.81
74921;BME280;63483;47.384;8.860;2023-06-22T09:29:47;94621.16;;;23.91;39.34
74921;BME280;63483;47.384;8.860;2023-06-22T09:32:13;94615.06;;;24.06;38.58
74921;BME280;63483;47.384;8.860;2023-06-22T09:34:38;94609.44;;;24.18;37.89
74921;BME280;63483;47.384;8.860;2023-06-22T09:37:03;94618.00;;;24.30;37.63
74921;BME280;63483;47.384;8.860;2023-06-22T09:39:29;94607.84;;;24.38;37.23
74921;BME280;63483;47.384;8.860;2023-06-22T09:41:54;94599.53;;;24.49;37.06
74921;BME280;63483;47.384;8.860;2023-06-22T09:44:20;94601.69;;;24.58;36.42
74921;BME280;63483;47.384;8.860;2023-06-22T09:46:45;94606.25;;;24.57;35.73
74921;BME280;63483;47.384;8.860;2023-06-22T09:49:10;94588.56;;;24.61;35.45
74921;BME280;63483;47.384;8.860;2023-06-22T09:51:36;94584.00;;;24.77;34.87
74921;BME280;63483;47.384;8.860;2023-06-22T09:54:01;94585.31;;;24.85;34.82
74921;BME280;63483;47.384;8.860;2023-06-22T09:56:26;94583.66;;;24.99;34.97
74921;BME280;63483;47.384;8.860;2023-06-22T09:58:53;94577.75;;;25.13;34.94
74921;BME280;63483;47.384;8.860;2023-06-22T10:01:19;94575.31;;;25.16;33.94
74921;BME280;63483;47.384;8.860;2023-06-22T10:03:45;94566.16;;;25.28;33.33
74921;BME280;63483;47.384;8.860;2023-06-22T10:06:11;94561.78;;;25.42;33.21
74921;BME280;63483;47.384;8.860;2023-06-22T10:08:36;94551.81;;;25.53;32.65
74921;BME280;63483;47.384;8.860;2023-06-22T10:11:02;94537.53;;;25.68;32.11
74921;BME280;63483;47.384;8.860;2023-06-22T10:13:28;94540.44;;;25.77;31.14
74921;BME280;63483;47.384;8.860;2023-06-22T10:15:53;94539.25;;;25.88;31.23
74921;BME280;63483;47.384;8.860;2023-06-22T10:18:19;94532.34;;;25.82;31.11
74921;BME280;63483;47.384;8.860;2023-06-22T10:20:48;94546.31;;;25.79;31.67
74921;BME280;63483;47.384;8.860;2023-06-22T10:23:16;94541.16;;;25.87;30.82
74921;BME280;63483;47.384;8.860;2023-06-22T10:25:41;94546.75;;;25.91;30.86
74921;BME280;63483;47.384;8.860;2023-06-22T10:28:07;94544.59;;;25.93;29.54
74921;BME280;63483;47.384;8.860;2023-06-22T10:30:32;94549.16;;;25.92;29.47
74921;BME280;63483;47.384;8.860;2023-06-22T10:32:57;94544.03;;;25.96;30.86
74921;BME280;63483;47.384;8.860;2023-06-22T10:35:23;94543.25;;;25.96;30.00
74921;BME280;63483;47.384;8.860;2023-06-22T10:37:48;94538.94;;;25.95;30.56
74921;BME280;63483;47.384;8.860;2023-06-22T10:40:15;94541.09;;;25.92;29.68
74921;BME280;63483;47.384;8.860;2023-06-22T10:42:41;94541.38;;;25.91;29.75
74921;BME280;63483;47.384;8.860;2023-06-22T10:45:08;94531.47;;;25.91;30.80
74921;BME280;63483;47.384;8.860;2023-06-22T10:47:34;94529.84;;;25.90;31.49
74921;BME280;63483;47.384;8.860;2023-06-22T10:50:01;94528.25;;;25.89;31.90
74921;BME280;63483;47.384;8.860;2023-06-22T10:52:26;94519.13;;;25.90;31.08
74921;BME280;63483;47.384;8.860;2023-06-22T10:54:51;94527.69;;;25.92;31.45
74921;BME280;63483;47.384;8.860;2023-06-22T10:57:18;94526.91;;;25.92;30.79
74921;BME280;63483;47.384;8.860;2023-06-22T10:59:43;94533.88;;;25.93;31.55
74921;BME280;63483;47.384;8.860;2023-06-22T11:02:08;94545.09;;;25.95;31.11
74921;BME280;63483;47.384;8.860;2023-06-22T11:04:33;94547.22;;;25.98;31.23
74921;BME280;63483;47.384;8.860;2023-06-22T11:06:59;94544.53;;;26.03;31.52
74921;BME280;63483;47.384;8.860;2023-06-22T11:09:24;94550.41;;;26.05;31.17
74921;BME280;63483;47.384;8.860;2023-06-22T11:11:51;94543.41;;;26.04;30.58
74921;BME280;63483;47.384;8.860;2023-06-22T11:14:19;94542.34;;;26.05;29.87
74921;BME280;63483;47.384;8.860;2023-06-22T11:16:44;94543.97;;;26.06;30.05
74921;BME280;63483;47.384;8.860;2023-06-22T11:19:09;94544.19;;;26.10;31.07
74921;BME280;63483;47.384;8.860;2023-06-22T11:21:35;94548.97;;;26.13;31.74
74921;BME280;63483;47.384;8.860;2023-06-22T11:24:00;94556.53;;;26.11;30.42
74921;BME280;63483;47.384;8.860;2023-06-22T11:26:26;94555.75;;;26.11;30.79
74921;BME280;63483;47.384;8.860;2023-06-22T11:28:55;94551.16;;;26.11;31.82
74921;BME280;63483;47.384;8.860;2023-06-22T11:31:20;94555.16;;;26.14;33.35
74921;BME280;63483;47.384;8.860;2023-06-22T11:33:46;94564.28;;;26.13;33.21
74921;BME280;63483;47.384;8.860;2023-06-22T11:36:13;94557.56;;;26.15;32.06
74921;BME280;63483;47.384;8.860;2023-06-22T11:38:38;94549.25;;;26.17;32.00
74921;BME280;63483;47.384;8.860;2023-06-22T11:41:08;94557.25;;;26.22;31.09
74921;BME280;63483;47.384;8.860;2023-06-22T11:43:33;94561.66;;;26.07;31.43
74921;BME280;63483;47.384;8.860;2023-06-22T11:46:00;94562.75;;;26.01;31.86
74921;BME280;63483;47.384;8.860;2023-06-22T11:48:26;94553.63;;;25.68;31.68
74921;BME280;63483;47.384;8.860;2023-06-22T11:50:51;94561.41;;;25.69;32.11
74921;BME280;63483;47.384;8.860;2023-06-22T11:53:17;94557.59;;;25.76;32.10
74921;BME280;63483;47.384;8.860;2023-06-22T11:55:43;94564.53;;;25.82;32.41
74921;BME280;63483;47.384;8.860;2023-06-22T11:58:08;94566.13;;;25.83;32.55
74921;BME280;63483;47.384;8.860;2023-06-22T12:00:34;94563.81;;;25.71;30.73
74921;BME280;63483;47.384;8.860;2023-06-22T12:02:59;94570.88;;;25.96;31.11
74921;BME280;63483;47.384;8.860;2023-06-22T12:05:25;94567.69;;;25.94;31.30
74921;BME280;63483;47.384;8.860;2023-06-22T12:07:53;94579.63;;;25.67;32.44
74921;BME280;63483;47.384;8.860;2023-06-22T12:10:19;94575.19;;;25.92;33.06
74921;BME280;63483;47.384;8.860;2023-06-22T12:12:44;94578.06;;;26.01;32.95
74921;BME280;63483;47.384;8.860;2023-06-22T12:15:10;94577.44;;;26.14;32.65
74921;BME280;63483;47.384;8.860;2023-06-22T12:17:36;94573.97;;;26.14;33.00
74921;BME280;63483;47.384;8.860;2023-06-22T12:20:01;94564.38;;;26.02;33.17
74921;BME280;63483;47.384;8.860;2023-06-22T12:22:31;94572.50;;;26.32;33.06
74921;BME280;63483;47.384;8.860;2023-06-22T12:24:56;94581.91;;;25.89;33.50
74921;BME280;63483;47.384;8.860;2023-06-22T12:27:21;94586.69;;;25.92;32.55
74921;BME280;63483;47.384;8.860;2023-06-22T12:29:47;94580.63;;;26.16;33.16
74921;BME280;63483;47.384;8.860;2023-06-22T12:32:13;94577.91;;;25.87;33.64
74921;BME280;63483;47.384;8.860;2023-06-22T12:34:39;94572.41;;;26.07;33.95
74921;BME280;63483;47.384;8.860;2023-06-22T12:37:04;94580.88;;;26.20;34.91
74921;BME280;63483;47.384;8.860;2023-06-22T12:39:31;94586.97;;;26.36;34.05
74921;BME280;63483;47.384;8.860;2023-06-22T12:41:57;94578.56;;;26.42;33.59
74921;BME280;63483;47.384;8.860;2023-06-22T12:44:22;94586.25;;;26.54;33.10
74921;BME280;63483;47.384;8.860;2023-06-22T12:46:47;94590.75;;;26.59;33.51
74921;BME280;63483;47.384;8.860;2023-06-22T12:49:13;94585.28;;;26.69;33.50
74921;BME280;63483;47.384;8.860;2023-06-22T12:51:43;94588.78;;;26.70;32.19
74921;BME280;63483;47.384;8.860;2023-06-22T12:54:09;94579.91;;;26.69;31.75
74921;BME280;63483;47.384;8.860;2023-06-22T12:56:34;94567.44;;;26.84;30.48
74921;BME280;63483;47.384;8.860;2023-06-22T12:59:00;94564.69;;;26.89;30.68
74921;BME280;63483;47.384;8.860;2023-06-22T13:01:28;94557.94;;;26.91;30.34